Soul City, North Carolina
Current Conditions -  °F | °C
As of 12:35 PM on Thursday 30 Oct 2014 (Local Time) from KHNZ Reporting Station
Clear Clear  
Wind Chill: 63°   Ceiling: Unl
Heat Index: 63°   Visibility: 10mi
Dew Point: 43°   Wind: 6mph
Humidity: 48%   Direction: 360°N
Pressure: 30.04"   Gusts: NA
Location:  36.4679°N, 78.2938°W
Report Text: KHNZ 301635Z AUTO 36005KT 10SM CLR 17/06 A3004 RMK AO2 T01700059
Loading
Personal Weather Stations






























Interactive Weather Map
Tropical Storm Tracking
New forecast layout! Learn more

10-Day Weather Forecast

Advertisements
Track Severe Weather on mobile